Time;durP1;ratioP1;P1;durP2;ratioP2;P2;SDS_P1;SDS_P2;PMS_P1;PMS_P2;Temp;Humidity;BMP_temperature;BMP_pressure;BME280_temperature;BME280_humidity;BME280_pressure;Samples;Min_cycle;Max_cycle;Signal;HPM_P1;HPM_P2
2023/11/30 00:01:56;;;;;;;19.00;10.85;;;1.70;99.90;;;;;;5066696;28;20036;-73
2023/11/30 00:04:21;;;;;;;18.17;11.00;;;1.70;99.90;;;;;;5066523;28;20052;-73
2023/11/30 00:06:47;;;;;;;20.48;10.93;;;1.70;99.90;;;;;;5066301;28;20040;-73
2023/11/30 00:09:13;;;;;;;17.67;10.98;;;1.60;99.90;;;;;;5066114;28;20021;-73
2023/11/30 00:11:39;;;;;;;19.17;10.80;;;1.70;99.90;;;;;;5066079;28;20025;-74
2023/11/30 00:14:04;;;;;;;20.27;11.13;;;1.70;99.90;;;;;;5066283;28;20029;-73
2023/11/30 00:16:30;;;;;;;19.85;10.70;;;1.60;99.90;;;;;;5066345;28;20033;-74
2023/11/30 00:18:56;;;;;;;22.70;9.80;;;1.60;99.90;;;;;;5048075;28;20036;-74
2023/11/30 00:21:22;;;;;;;17.33;10.63;;;1.60;99.90;;;;;;5066655;28;20023;-73
2023/11/30 00:23:47;;;;;;;20.80;12.00;;;1.60;99.90;;;;;;5065821;28;20427;-74
2023/11/30 00:26:15;;;;;;;18.67;10.02;;;1.60;99.90;;;;;;5066183;28;20029;-74
2023/11/30 00:28:41;;;;;;;17.80;10.18;;;1.60;99.90;;;;;;5066131;28;20056;-73
2023/11/30 00:31:07;;;;;;;18.20;10.43;;;1.60;99.90;;;;;;5066263;28;20116;-73
2023/11/30 00:33:33;;;;;;;16.08;10.30;;;1.60;99.90;;;;;;5047772;28;20027;-74
2023/11/30 00:35:58;;;;;;;18.27;10.23;;;1.60;99.90;;;;;;5066211;28;20032;-74
2023/11/30 00:38:24;;;;;;;22.17;10.27;;;1.60;99.90;;;;;;5060034;28;20033;-74
2023/11/30 00:40:50;;;;;;;17.73;9.73;;;1.60;99.90;;;;;;5046572;28;20021;-73
2023/11/30 00:43:16;;;;;;;17.08;10.65;;;1.60;99.90;;;;;;5046068;28;20021;-73
2023/11/30 00:45:42;;;;;;;20.00;10.80;;;1.50;99.90;;;;;;5046094;28;20028;-73
2023/11/30 00:48:08;;;;;;;18.35;10.75;;;1.60;99.90;;;;;;5045842;28;20422;-73
2023/11/30 00:50:33;;;;;;;16.70;9.85;;;1.60;99.90;;;;;;5045849;28;20108;-73
2023/11/30 00:52:59;;;;;;;17.08;10.52;;;1.50;99.90;;;;;;5045534;28;20021;-73
2023/11/30 00:55:25;;;;;;;18.58;10.57;;;1.50;99.90;;;;;;5046185;28;20159;-74
2023/11/30 00:57:50;;;;;;;16.58;10.52;;;1.50;99.90;;;;;;5045762;28;20488;-74
2023/11/30 01:00:16;;;;;;;19.05;10.40;;;1.50;99.90;;;;;;5046235;28;20036;-74
2023/11/30 01:02:42;;;;;;;18.50;11.23;;;1.50;99.90;;;;;;5030388;28;20021;-74
2023/11/30 01:05:08;;;;;;;18.67;10.65;;;1.50;99.90;;;;;;5049132;28;20033;-73
2023/11/30 01:07:35;;;;;;;15.52;9.77;;;1.50;99.90;;;;;;5049128;28;20512;-73
2023/11/30 01:10:01;;;;;;;19.98;10.25;;;1.50;99.90;;;;;;5049499;28;20544;-74
2023/11/30 01:12:27;;;;;;;17.25;10.23;;;1.50;99.90;;;;;;5049295;28;20024;-74
2023/11/30 01:14:56;;;;;;;22.23;10.02;;;1.50;99.90;;;;;;5049809;28;20379;-74
2023/11/30 01:17:22;;;;;;;18.83;9.98;;;1.50;99.90;;;;;;5049155;28;20049;-74
2023/11/30 01:19:48;;;;;;;17.52;10.30;;;1.40;99.90;;;;;;5049162;28;20025;-73
2023/11/30 01:22:14;;;;;;;18.23;10.25;;;1.40;99.90;;;;;;5049381;28;20032;-73
2023/11/30 01:24:41;;;;;;;16.67;10.82;;;1.40;99.90;;;;;;5033566;28;20021;-73
2023/11/30 01:27:07;;;;;;;17.33;10.32;;;1.40;99.90;;;;;;5040867;28;20861;-74
2023/11/30 01:29:32;;;;;;;18.45;9.80;;;1.40;99.90;;;;;;5049094;28;20020;-74
2023/11/30 01:31:58;;;;;;;16.75;10.15;;;1.40;99.90;;;;;;5048817;28;20525;-74
2023/11/30 01:34:24;;;;;;;15.55;9.60;;;1.40;99.90;;;;;;5048914;28;20033;-74
2023/11/30 01:36:50;;;;;;;18.80;9.82;;;1.40;99.90;;;;;;5048711;28;20375;-73
2023/11/30 01:39:16;;;;;;;20.33;10.57;;;1.40;99.90;;;;;;5056343;28;20170;-73
2023/11/30 01:41:42;;;;;;;23.20;9.70;;;1.40;99.90;;;;;;5083053;28;20028;-74
2023/11/30 01:44:09;;;;;;;31.00;10.18;;;1.30;99.90;;;;;;5079254;28;20511;-73
2023/11/30 01:46:36;;;;;;;64.03;11.60;;;1.20;99.90;;;;;;5085360;28;20024;-73
2023/11/30 01:49:02;;;;;;;59.20;11.85;;;1.00;99.90;;;;;;5074773;28;20012;-74
2023/11/30 01:51:31;;;;;;;103.10;12.55;;;1.00;99.90;;;;;;5059797;28;20024;-74
2023/11/30 01:53:59;;;;;;;77.90;10.63;;;0.90;99.90;;;;;;5082722;28;20362;-74
2023/11/30 01:56:25;;;;;;;40.70;10.43;;;0.90;99.90;;;;;;5078591;28;20024;-74
2023/11/30 01:58:52;;;;;;;36.75;10.60;;;0.90;99.90;;;;;;5074060;28;20093;-73
2023/11/30 02:01:18;;;;;;;37.38;11.60;;;0.90;99.90;;;;;;5081264;28;20024;-74
2023/11/30 02:03:44;;;;;;;31.80;10.48;;;1.00;99.90;;;;;;5082085;28;20024;-73
2023/11/30 02:06:15;;;;;;;30.98;11.13;;;1.00;99.90;;;;;;5060644;28;20095;-74
2023/11/30 02:08:42;;;;;;;29.35;10.63;;;1.00;99.90;;;;;;5075326;28;20158;-74
2023/11/30 02:11:07;;;;;;;52.58;10.25;;;1.10;99.90;;;;;;5082724;28;20374;-73
2023/11/30 02:13:33;;;;;;;34.50;9.70;;;1.10;99.90;;;;;;5078978;28;20017;-74
2023/11/30 02:15:59;;;;;;;26.00;9.93;;;1.10;99.90;;;;;;5073507;28;20483;-74
2023/11/30 02:18:24;;;;;;;27.60;9.82;;;1.20;99.90;;;;;;5079491;28;20039;-74
2023/11/30 02:20:50;;;;;;;36.22;9.93;;;1.20;99.90;;;;;;5082522;28;20024;-73
2023/11/30 02:23:16;;;;;;;31.08;9.85;;;1.20;99.90;;;;;;5074544;28;20058;-74
2023/11/30 02:25:41;;;;;;;33.17;10.50;;;1.20;99.90;;;;;;5057156;28;20098;-74
2023/11/30 02:28:07;;;;;;;33.88;10.02;;;1.20;99.90;;;;;;5082043;28;20028;-74
2023/11/30 02:30:35;;;;;;;32.78;10.35;;;1.30;99.90;;;;;;5078919;28;20153;-74
2023/11/30 02:33:01;;;;;;;36.78;10.80;;;1.30;99.90;;;;;;5055447;28;20027;-74
2023/11/30 02:35:27;;;;;;;25.27;10.75;;;1.30;99.90;;;;;;5078875;28;20398;-73
2023/11/30 02:37:52;;;;;;;25.50;10.75;;;1.30;99.90;;;;;;5076229;28;20020;-74
2023/11/30 02:40:18;;;;;;;28.48;9.77;;;1.30;99.90;;;;;;5080999;28;20047;-74
2023/11/30 02:42:44;;;;;;;18.25;9.98;;;1.30;99.90;;;;;;5062601;28;20047;-74
2023/11/30 02:45:10;;;;;;;21.42;10.05;;;1.30;99.90;;;;;;5072642;28;20024;-74
2023/11/30 02:47:35;;;;;;;29.52;11.13;;;1.30;99.90;;;;;;5074508;28;20020;-73
2023/11/30 02:50:01;;;;;;;24.80;10.52;;;1.30;99.90;;;;;;5074495;28;20036;-74
2023/11/30 02:52:26;;;;;;;20.98;11.25;;;1.30;99.90;;;;;;5067428;28;20031;-74
2023/11/30 02:54:52;;;;;;;24.55;10.82;;;1.30;99.90;;;;;;5049370;28;20137;-74
2023/11/30 02:57:18;;;;;;;17.88;10.18;;;1.40;99.90;;;;;;5081595;28;20013;-73
2023/11/30 02:59:43;;;;;;;19.73;10.75;;;1.40;99.90;;;;;;5076293;28;20020;-73
2023/11/30 03:02:09;;;;;;;21.38;11.30;;;1.40;99.90;;;;;;5055049;28;20485;-73
2023/11/30 03:04:35;;;;;;;20.75;11.05;;;1.40;99.90;;;;;;5062045;28;20485;-74
2023/11/30 03:07:00;;;;;;;19.13;10.65;;;1.40;99.90;;;;;;5080554;28;20023;-74
2023/11/30 03:09:26;;;;;;;18.63;10.50;;;1.50;99.90;;;;;;5072907;28;20024;-73
2023/11/30 03:11:52;;;;;;;26.65;11.25;;;1.50;99.90;;;;;;5076415;28;20029;-73
2023/11/30 03:14:17;;;;;;;23.73;11.80;;;1.50;99.90;;;;;;5081091;28;20024;-74
2023/11/30 03:16:43;;;;;;;18.52;10.57;;;1.50;99.90;;;;;;5076180;28;20016;-73
2023/11/30 03:19:09;;;;;;;17.77;10.20;;;1.50;99.90;;;;;;5054675;28;20543;-73
2023/11/30 03:21:34;;;;;;;20.50;10.82;;;1.50;99.90;;;;;;5080190;28;20028;-74
2023/11/30 03:24:00;;;;;;;17.23;9.77;;;1.60;99.90;;;;;;5079792;28;20028;-73
2023/11/30 03:26:26;;;;;;;19.85;10.93;;;1.50;99.90;;;;;;5072937;28;20024;-74
2023/11/30 03:28:51;;;;;;;16.45;9.27;;;1.50;99.90;;;;;;5057406;28;20021;-74
2023/11/30 03:31:18;;;;;;;21.73;11.18;;;1.50;99.90;;;;;;5081067;28;20103;-74
2023/11/30 03:33:43;;;;;;;19.10;11.38;;;1.50;99.90;;;;;;5048339;28;20028;-73
2023/11/30 03:36:09;;;;;;;18.23;11.40;;;1.50;99.90;;;;;;5080560;28;20042;-73
2023/11/30 03:38:35;;;;;;;21.23;11.60;;;1.40;99.90;;;;;;5055164;28;20370;-74
2023/11/30 03:41:00;;;;;;;19.50;10.85;;;1.30;99.90;;;;;;5055804;28;20549;-74
2023/11/30 03:43:26;;;;;;;22.17;10.95;;;1.20;99.90;;;;;;5080706;28;20025;-73
2023/11/30 03:45:51;;;;;;;18.08;10.98;;;1.20;99.90;;;;;;5070500;28;20047;-73
2023/11/30 03:48:17;;;;;;;20.73;12.05;;;1.10;99.90;;;;;;5048361;28;20766;-73
2023/11/30 03:50:43;;;;;;;23.02;12.10;;;1.10;99.90;;;;;;5080808;28;20055;-73
2023/11/30 03:53:09;;;;;;;19.77;11.57;;;1.10;99.90;;;;;;5077130;28;20397;-74
2023/11/30 03:55:34;;;;;;;19.33;11.30;;;1.10;99.90;;;;;;5072410;28;20077;-73
2023/11/30 03:58:00;;;;;;;18.33;10.95;;;1.20;99.90;;;;;;5077416;28;20051;-73
2023/11/30 04:00:26;;;;;;;20.52;11.80;;;1.20;99.90;;;;;;5067093;28;20055;-73
2023/11/30 04:02:51;;;;;;;20.65;10.73;;;1.20;99.90;;;;;;5079720;28;20016;-74
2023/11/30 04:05:19;;;;;;;21.50;11.65;;;1.30;99.90;;;;;;5048480;28;20032;-74
2023/11/30 04:07:45;;;;;;;20.45;11.75;;;1.30;99.90;;;;;;5066099;28;20025;-73
2023/11/30 04:10:11;;;;;;;25.40;12.45;;;1.30;99.90;;;;;;5077487;28;20031;-74
2023/11/30 04:12:37;;;;;;;22.35;10.63;;;1.40;99.90;;;;;;5054030;28;20139;-73
2023/11/30 04:15:05;;;;;;;22.27;10.98;;;1.40;99.90;;;;;;5077248;28;20460;-73
2023/11/30 04:17:31;;;;;;;24.38;12.88;;;1.40;99.90;;;;;;5080126;28;20081;-74
2023/11/30 04:19:57;;;;;;;21.55;11.73;;;1.40;99.90;;;;;;5073617;28;20073;-74
2023/11/30 04:22:22;;;;;;;25.90;11.32;;;1.40;99.90;;;;;;5072961;28;20028;-74
2023/11/30 04:24:48;;;;;;;22.88;11.50;;;1.40;99.90;;;;;;5080495;28;20504;-74
2023/11/30 04:27:14;;;;;;;24.63;12.57;;;1.40;99.90;;;;;;5077822;28;20509;-74
2023/11/30 04:29:40;;;;;;;20.92;11.90;;;1.40;99.90;;;;;;5071566;28;20016;-73
2023/11/30 04:32:06;;;;;;;25.42;12.05;;;1.40;99.90;;;;;;5076991;28;20027;-73
2023/11/30 04:34:31;;;;;;;24.27;13.10;;;1.40;99.90;;;;;;5079869;28;20032;-73
2023/11/30 04:36:57;;;;;;;25.65;12.73;;;1.40;99.90;;;;;;5073747;28;20077;-73
2023/11/30 04:39:24;;;;;;;27.75;13.27;;;1.40;99.90;;;;;;5063719;28;20054;-73
2023/11/30 04:41:51;;;;;;;23.50;11.80;;;1.40;99.90;;;;;;5075808;28;20031;-73
2023/11/30 04:44:16;;;;;;;28.23;13.75;;;1.40;99.90;;;;;;5060036;28;20598;-73
2023/11/30 04:46:42;;;;;;;26.55;13.55;;;1.40;99.90;;;;;;5073793;28;20112;-73
2023/11/30 04:49:09;;;;;;;24.13;12.75;;;1.40;99.90;;;;;;5057400;28;20119;-74
2023/11/30 04:51:35;;;;;;;23.17;12.38;;;1.40;99.90;;;;;;5059847;28;20028;-73
2023/11/30 04:54:01;;;;;;;27.67;14.27;;;1.40;99.90;;;;;;5065571;28;20021;-73
2023/11/30 04:56:27;;;;;;;30.42;13.77;;;1.40;99.90;;;;;;5071882;28;20024;-74
2023/11/30 04:58:53;;;;;;;34.65;14.82;;;1.50;99.90;;;;;;5075371;28;20071;-73
2023/11/30 05:01:18;;;;;;;31.77;14.85;;;1.50;99.90;;;;;;5063771;28;20623;-74
2023/11/30 05:03:44;;;;;;;32.28;15.25;;;1.50;99.90;;;;;;5051242;28;20029;-74
2023/11/30 05:06:10;;;;;;;23.67;11.68;;;1.50;99.90;;;;;;5051324;28;20092;-73
2023/11/30 05:08:35;;;;;;;32.05;14.73;;;1.50;99.90;;;;;;5081508;28;20024;-74
2023/11/30 05:11:01;;;;;;;33.90;14.40;;;1.50;99.90;;;;;;5075737;28;20298;-73
2023/11/30 05:13:27;;;;;;;26.92;13.88;;;1.50;99.90;;;;;;5061288;28;20119;-74
2023/11/30 05:15:53;;;;;;;31.75;15.10;;;1.50;99.90;;;;;;5056989;28;20027;-73
2023/11/30 05:18:18;;;;;;;32.28;15.27;;;1.50;99.90;;;;;;5081663;28;20031;-74
2023/11/30 05:20:44;;;;;;;33.42;14.73;;;1.50;99.90;;;;;;5083279;28;20141;-73
2023/11/30 05:23:10;;;;;;;31.33;14.38;;;1.50;99.90;;;;;;5057128;28;20022;-74
2023/11/30 05:25:35;;;;;;;40.92;16.55;;;1.50;99.90;;;;;;5077466;28;20020;-74
2023/11/30 05:28:03;;;;;;;35.85;14.80;;;1.50;99.90;;;;;;5083258;28;20492;-74
2023/11/30 05:30:29;;;;;;;41.42;16.20;;;1.50;99.90;;;;;;5051035;28;20030;-73
2023/11/30 05:32:55;;;;;;;50.25;15.68;;;1.50;99.90;;;;;;5083010;28;20024;-74
2023/11/30 05:35:22;;;;;;;44.10;16.83;;;1.50;99.90;;;;;;5077032;28;20096;-73
2023/11/30 05:37:48;;;;;;;40.47;16.63;;;1.50;99.90;;;;;;5075059;28;20024;-74
2023/11/30 05:40:16;;;;;;;45.55;17.13;;;1.50;99.90;;;;;;5082506;28;20776;-73
2023/11/30 05:42:42;;;;;;;48.83;16.73;;;1.50;99.90;;;;;;5081378;28;20534;-74
2023/11/30 05:45:08;;;;;;;48.42;17.70;;;1.50;99.90;;;;;;5074131;28;20016;-74
2023/11/30 05:47:33;;;;;;;41.80;16.85;;;1.50;99.90;;;;;;5075371;28;20039;-74
2023/11/30 05:50:00;;;;;;;37.10;15.88;;;1.50;99.90;;;;;;5074838;28;20024;-73
2023/11/30 05:52:26;;;;;;;34.90;15.40;;;1.50;99.90;;;;;;5055563;28;20024;-74
2023/11/30 05:54:53;;;;;;;49.20;16.67;;;1.60;99.90;;;;;;5077376;28;20024;-73
2023/11/30 05:57:18;;;;;;;42.33;16.50;;;1.60;99.90;;;;;;5083083;28;20020;-73
2023/11/30 05:59:44;;;;;;;37.30;16.38;;;1.50;99.90;;;;;;5068262;28;20031;-74
2023/11/30 06:02:10;;;;;;;36.08;15.90;;;1.60;99.90;;;;;;5069779;28;20028;-74
2023/11/30 06:04:37;;;;;;;42.40;16.23;;;1.60;99.90;;;;;;5081339;28;20030;-73
2023/11/30 06:07:02;;;;;;;30.30;14.38;;;1.60;99.90;;;;;;5081911;28;20154;-74
2023/11/30 06:09:28;;;;;;;38.63;16.20;;;1.60;99.90;;;;;;5074073;28;20103;-74
2023/11/30 06:11:54;;;;;;;36.90;16.50;;;1.60;99.90;;;;;;5059222;28;20195;-74
2023/11/30 06:14:19;;;;;;;36.20;16.08;;;1.60;99.90;;;;;;5082053;28;20019;-73
2023/11/30 06:16:45;;;;;;;33.85;15.70;;;1.60;99.90;;;;;;5076554;28;20118;-73
2023/11/30 06:19:11;;;;;;;32.25;14.57;;;1.50;99.90;;;;;;5055944;28;20044;-74
2023/11/30 06:21:39;;;;;;;40.03;16.52;;;1.50;99.90;;;;;;5081397;28;20127;-74
2023/11/30 06:24:06;;;;;;;38.30;16.75;;;1.50;99.90;;;;;;5081673;28;20024;-74
2023/11/30 06:26:32;;;;;;;32.92;15.40;;;1.50;99.90;;;;;;5074251;28;20051;-74
2023/11/30 06:28:57;;;;;;;30.70;15.45;;;1.60;99.90;;;;;;5077025;28;20102;-73
2023/11/30 06:31:23;;;;;;;25.45;12.35;;;1.60;99.90;;;;;;5082783;28;20509;-74
2023/11/30 06:33:50;;;;;;;32.28;15.35;;;1.60;99.90;;;;;;5049853;28;20541;-73
2023/11/30 06:36:16;;;;;;;30.75;16.17;;;1.60;99.90;;;;;;5082167;28;20593;-73
2023/11/30 06:38:42;;;;;;;32.78;16.77;;;1.60;99.90;;;;;;5056694;28;20048;-73
2023/11/30 06:41:14;;;;;;;32.40;15.30;;;1.60;99.90;;;;;;5074505;28;20032;-74
2023/11/30 06:43:40;;;;;;;29.77;15.40;;;1.70;99.90;;;;;;5061141;28;20111;-73
2023/11/30 06:46:06;;;;;;;32.53;15.95;;;1.70;99.90;;;;;;5059180;28;20012;-73
2023/11/30 06:48:33;;;;;;;28.35;15.40;;;1.70;99.90;;;;;;5064498;28;20052;-73
2023/11/30 06:50:59;;;;;;;34.00;16.27;;;1.70;99.90;;;;;;5075863;28;20450;-73
2023/11/30 06:53:24;;;;;;;30.73;16.65;;;1.70;99.90;;;;;;5074679;28;20448;-73
2023/11/30 06:55:50;;;;;;;35.53;16.15;;;1.70;99.90;;;;;;5081606;28;20052;-74
2023/11/30 06:58:17;;;;;;;25.65;14.15;;;1.70;99.90;;;;;;5067354;28;20048;-73
2023/11/30 07:00:43;;;;;;;29.40;15.07;;;1.70;99.90;;;;;;5069825;28;20366;-73
2023/11/30 07:03:08;;;;;;;29.02;16.08;;;1.70;99.90;;;;;;5078211;28;20570;-73
2023/11/30 07:05:34;;;;;;;30.27;14.85;;;1.70;99.90;;;;;;5066768;28;20079;-73
2023/11/30 07:08:00;;;;;;;35.90;16.67;;;1.70;99.90;;;;;;5049277;28;20028;-74
2023/11/30 07:10:25;;;;;;;35.80;15.43;;;1.70;99.90;;;;;;5080261;28;20539;-73
2023/11/30 07:12:51;;;;;;;30.48;15.73;;;1.80;99.90;;;;;;5066819;28;20028;-73
2023/11/30 07:15:17;;;;;;;30.67;14.77;;;1.70;99.90;;;;;;5066622;28;20031;-73
2023/11/30 07:17:42;;;;;;;36.25;17.08;;;1.80;99.90;;;;;;5066047;28;20024;-73
2023/11/30 07:20:08;;;;;;;38.67;17.13;;;1.80;99.90;;;;;;5048298;28;20043;-73
2023/11/30 07:22:34;;;;;;;33.72;17.23;;;1.80;99.90;;;;;;5067646;28;20021;-73
2023/11/30 07:25:01;;;;;;;32.65;16.67;;;1.80;99.90;;;;;;5071817;28;20012;-73
2023/11/30 07:27:26;;;;;;;47.10;18.15;;;1.80;99.90;;;;;;5053380;28;20029;-73
2023/11/30 07:29:52;;;;;;;41.10;18.83;;;1.80;99.90;;;;;;5048196;28;20855;-73
2023/11/30 07:32:18;;;;;;;38.20;17.80;;;1.80;99.90;;;;;;5066762;28;20047;-73
2023/11/30 07:34:44;;;;;;;37.92;18.95;;;1.80;99.90;;;;;;5065059;28;20021;-74
2023/11/30 07:37:10;;;;;;;36.97;17.20;;;1.80;99.90;;;;;;5066056;28;20123;-73
2023/11/30 07:39:36;;;;;;;39.53;16.45;;;1.80;99.90;;;;;;5078699;28;20123;-73
2023/11/30 07:42:03;;;;;;;34.65;17.75;;;1.80;99.90;;;;;;5048099;28;20103;-72
2023/11/30 07:44:29;;;;;;;32.40;16.80;;;1.80;99.90;;;;;;5065675;28;20390;-73
2023/11/30 07:46:55;;;;;;;33.55;16.55;;;1.80;99.90;;;;;;5073380;28;20028;-73
2023/11/30 07:49:21;;;;;;;31.55;17.17;;;1.90;99.90;;;;;;5053184;28;20140;-73
2023/11/30 07:51:47;;;;;;;33.90;16.05;;;1.90;99.90;;;;;;5066365;28;20132;-73
2023/11/30 07:54:13;;;;;;;42.20;17.73;;;1.90;99.90;;;;;;5065844;28;20051;-73
2023/11/30 07:56:38;;;;;;;36.60;17.10;;;1.90;99.90;;;;;;5066574;28;20020;-73
2023/11/30 07:59:04;;;;;;;33.78;16.80;;;1.90;99.90;;;;;;5064952;28;20047;-73
2023/11/30 08:01:30;;;;;;;33.83;15.38;;;1.90;99.90;;;;;;5066060;28;20028;-73
2023/11/30 08:03:56;;;;;;;32.20;14.70;;;1.90;99.90;;;;;;5067866;28;20109;-73
2023/11/30 08:06:21;;;;;;;32.72;16.67;;;1.90;99.90;;;;;;5079153;28;20016;-73
2023/11/30 08:08:47;;;;;;;37.78;16.08;;;2.00;99.90;;;;;;5048175;28;20025;-73
2023/11/30 08:11:13;;;;;;;36.17;15.95;;;2.00;99.90;;;;;;5056592;28;20024;-73
2023/11/30 08:13:38;;;;;;;31.02;16.13;;;2.00;99.90;;;;;;5059332;28;20036;-73
2023/11/30 08:16:05;;;;;;;37.78;17.67;;;2.00;99.90;;;;;;5050614;28;20020;-73
2023/11/30 08:18:31;;;;;;;37.60;18.75;;;2.00;99.90;;;;;;5069917;28;20029;-74
2023/11/30 08:21:00;;;;;;;39.85;17.10;;;2.00;99.90;;;;;;5070322;28;20534;-74
2023/11/30 08:23:26;;;;;;;41.10;18.33;;;2.00;99.90;;;;;;5051996;28;20036;-73
2023/11/30 08:25:51;;;;;;;41.15;17.92;;;2.00;99.90;;;;;;5069865;28;20565;-74
2023/11/30 08:28:17;;;;;;;37.50;18.08;;;2.10;99.90;;;;;;5074858;28;20032;-73
2023/11/30 08:30:43;;;;;;;39.55;18.15;;;2.10;99.90;;;;;;5068832;28;20056;-75
2023/11/30 08:33:09;;;;;;;38.08;17.83;;;2.10;99.90;;;;;;5074524;28;20051;-74
2023/11/30 08:35:35;;;;;;;44.15;19.05;;;2.10;99.90;;;;;;5059169;28;20025;-73
2023/11/30 08:38:00;;;;;;;40.45;19.42;;;2.10;99.90;;;;;;5071255;28;20028;-73
2023/11/30 08:40:26;;;;;;;36.50;18.90;;;2.10;99.90;;;;;;5059468;28;20068;-73
2023/11/30 08:42:51;;;;;;;34.78;17.77;;;2.20;99.90;;;;;;5044318;28;20036;-73
2023/11/30 08:45:18;;;;;;;36.17;17.83;;;2.20;99.90;;;;;;5067948;28;20052;-73
2023/11/30 08:47:43;;;;;;;34.97;17.67;;;2.20;99.90;;;;;;5081667;28;20035;-73
2023/11/30 08:50:09;;;;;;;43.28;18.23;;;2.20;99.90;;;;;;5069275;28;20017;-73
2023/11/30 08:52:35;;;;;;;44.15;17.92;;;2.20;99.90;;;;;;5051366;28;20029;-73
2023/11/30 08:55:01;;;;;;;35.65;18.35;;;2.20;99.90;;;;;;5071757;28;20066;-74
2023/11/30 08:57:27;;;;;;;45.78;19.52;;;2.20;99.90;;;;;;5055568;28;20028;-73
2023/11/30 08:59:52;;;;;;;41.00;18.20;;;2.20;99.90;;;;;;5072358;28;20075;-73
2023/11/30 09:02:24;;;;;;;43.63;18.33;;;2.20;99.90;;;;;;5069561;28;20051;-73
2023/11/30 09:04:52;;;;;;;39.03;18.25;;;2.30;99.90;;;;;;5073501;28;20052;-74
2023/11/30 09:07:18;;;;;;;53.20;19.88;;;2.30;99.90;;;;;;5070367;28;20108;-73
2023/11/30 09:09:44;;;;;;;45.65;20.08;;;2.30;99.90;;;;;;5051969;28;20174;-73
2023/11/30 09:12:11;;;;;;;46.65;20.33;;;2.30;99.90;;;;;;5082970;28;20034;-73
2023/11/30 09:14:37;;;;;;;41.22;19.05;;;2.30;99.90;;;;;;5074753;28;20016;-73
2023/11/30 09:17:04;;;;;;;43.45;18.98;;;2.40;99.90;;;;;;5071523;28;20025;-73
2023/11/30 09:19:29;;;;;;;54.65;20.52;;;2.40;99.90;;;;;;5073418;28;20021;-73
2023/11/30 09:21:55;;;;;;;45.78;19.33;;;2.40;99.90;;;;;;5075307;28;20070;-73
2023/11/30 09:24:23;;;;;;;49.60;19.73;;;2.40;99.90;;;;;;5062748;28;20033;-72
2023/11/30 09:26:51;;;;;;;48.05;20.23;;;2.40;99.90;;;;;;5067919;28;20127;-74
2023/11/30 09:29:17;;;;;;;49.17;20.25;;;2.40;99.90;;;;;;5050359;28;20124;-73
2023/11/30 09:31:43;;;;;;;53.78;22.35;;;2.40;99.90;;;;;;5078002;28;20085;-73
2023/11/30 09:34:11;;;;;;;48.40;19.88;;;2.40;99.90;;;;;;5052892;28;20032;-73
2023/11/30 09:36:38;;;;;;;49.83;20.90;;;2.50;99.90;;;;;;5071554;28;20572;-74
2023/11/30 09:39:05;;;;;;;59.17;21.83;;;2.50;99.90;;;;;;5074970;28;20482;-73
2023/11/30 09:41:31;;;;;;;38.30;17.52;;;2.50;99.90;;;;;;5070691;28;20149;-74
2023/11/30 09:43:56;;;;;;;57.08;22.17;;;2.50;99.90;;;;;;5072529;28;20024;-74
2023/11/30 09:46:22;;;;;;;59.10;21.83;;;2.50;99.90;;;;;;5068336;28;20059;-73
2023/11/30 09:48:48;;;;;;;45.58;19.25;;;2.50;99.90;;;;;;5080294;28;20020;-73
2023/11/30 09:51:19;;;;;;;52.03;21.55;;;2.50;99.90;;;;;;5050446;28;20027;-73
2023/11/30 09:53:45;;;;;;;;;;;2.50;99.90;;;;;;5070639;28;20028;-73
2023/11/30 09:56:11;;;;;;;65.63;20.85;;;2.50;99.90;;;;;;5077200;28;20384;-73
2023/11/30 09:58:37;;;;;;;51.42;20.92;;;2.50;99.90;;;;;;5067989;28;20041;-73
2023/11/30 10:01:07;;;;;;;61.28;22.63;;;2.50;99.90;;;;;;5068527;28;20056;-73
2023/11/30 10:03:33;;;;;;;56.38;22.35;;;2.50;99.90;;;;;;5065136;28;20860;-73
2023/11/30 10:06:00;;;;;;;55.80;21.40;;;2.50;99.90;;;;;;5068348;28;20020;-72
2023/11/30 10:08:26;;;;;;;47.67;21.20;;;2.50;99.90;;;;;;5069213;28;20032;-73
2023/11/30 10:10:52;;;;;;;50.90;22.20;;;2.50;99.90;;;;;;5054356;28;20024;-73
2023/11/30 10:13:18;;;;;;;64.10;23.33;;;2.50;99.90;;;;;;5060668;28;20028;-73
2023/11/30 10:15:45;;;;;;;56.15;21.65;;;2.50;99.90;;;;;;5067847;28;20073;-73
2023/11/30 10:18:11;;;;;;;63.25;23.08;;;2.60;99.90;;;;;;5049118;28;20102;-73
2023/11/30 10:20:37;;;;;;;63.78;23.25;;;2.60;99.90;;;;;;5063851;28;20394;-73
2023/11/30 10:23:10;;;;;;;60.92;21.73;;;2.60;99.90;;;;;;5049492;28;20059;-73
2023/11/30 10:25:37;;;;;;;52.15;21.08;;;2.60;99.90;;;;;;5071700;28;20021;-73
2023/11/30 10:28:05;;;;;;;51.30;22.33;;;2.60;99.90;;;;;;5066347;28;20024;-73
2023/11/30 10:30:33;;;;;;;63.78;23.30;;;2.60;99.90;;;;;;5076232;28;20608;-73
2023/11/30 10:33:03;;;;;;;66.32;22.20;;;2.60;99.90;;;;;;5072773;28;20032;-73
2023/11/30 10:35:30;;;;;;;73.25;24.98;;;2.70;99.90;;;;;;5077219;28;20044;-73
2023/11/30 10:37:58;;;;;;;78.82;24.60;;;2.70;99.90;;;;;;5049031;28;20024;-74
2023/11/30 10:40:25;;;;;;;58.97;22.17;;;2.70;99.90;;;;;;5079100;28;20387;-73
2023/11/30 10:42:51;;;;;;;62.33;24.63;;;2.70;99.90;;;;;;5081635;28;20032;-73
2023/11/30 10:45:19;;;;;;;85.45;26.40;;;2.70;99.90;;;;;;5071131;28;20434;-74
2023/11/30 10:47:45;;;;;;;82.40;26.10;;;2.70;99.90;;;;;;5067564;28;20054;-72
2023/11/30 10:50:13;;;;;;;66.78;24.45;;;2.70;99.90;;;;;;5067087;28;20021;-73
2023/11/30 10:52:43;;;;;;;59.25;21.30;;;2.70;99.90;;;;;;5049127;28;20028;-72
2023/11/30 10:55:21;;;;;;;82.22;27.00;;;2.70;99.90;;;;;;5080275;28;20028;-73
2023/11/30 10:57:47;;;;;;;71.90;26.38;;;2.80;99.90;;;;;;5060876;28;20024;-74
2023/11/30 11:00:14;;;;;;;86.10;26.83;;;2.80;99.90;;;;;;5074306;28;20535;-73
2023/11/30 11:02:47;;;;;;;98.53;27.83;;;2.80;99.90;;;;;;5083756;28;20485;-73
2023/11/30 11:05:22;;;;;;;84.50;27.00;;;2.80;99.90;;;;;;5078825;28;20057;-73
2023/11/30 11:07:49;;;;;;;79.93;26.63;;;2.80;99.90;;;;;;5073102;28;20032;-73
2023/11/30 11:10:26;;;;;;;120.68;29.45;;;2.90;99.90;;;;;;5075565;28;20025;-73
2023/11/30 11:12:52;;;;;;;86.60;29.27;;;2.90;99.90;;;;;;5081248;28;20020;-73
2023/11/30 11:15:22;;;;;;;71.80;26.58;;;2.90;99.90;;;;;;5077970;28;20016;-73
2023/11/30 11:17:50;;;;;;;89.00;29.05;;;2.90;99.90;;;;;;5072904;28;20050;-73
2023/11/30 11:20:23;;;;;;;96.40;30.27;;;2.90;99.90;;;;;;5058917;28;20028;-73
2023/11/30 11:22:55;;;;;;;89.45;30.00;;;2.90;99.90;;;;;;5081091;28;20024;-73
2023/11/30 11:25:21;;;;;;;84.00;32.67;;;2.90;99.90;;;;;;5076799;28;20020;-73
2023/11/30 11:27:48;;;;;;;88.85;31.95;;;2.90;99.90;;;;;;5063758;28;20038;-73
2023/11/30 11:30:14;;;;;;;89.43;33.10;;;2.90;99.90;;;;;;5074828;28;20020;-73
2023/11/30 11:32:42;;;;;;;92.00;35.38;;;2.90;99.90;;;;;;5072781;28;20033;-73
2023/11/30 11:35:10;;;;;;;86.60;33.60;;;2.90;99.90;;;;;;5058836;28;20491;-73
2023/11/30 11:37:36;;;;;;;93.78;32.75;;;2.80;99.90;;;;;;5050189;28;20027;-73
2023/11/30 11:40:03;;;;;;;87.70;34.03;;;2.90;99.90;;;;;;5080214;28;20028;-73
2023/11/30 11:42:29;;;;;;;81.15;32.28;;;2.90;99.90;;;;;;5077798;28;20024;-73
2023/11/30 11:44:55;;;;;;;90.25;35.42;;;2.90;99.90;;;;;;5067515;28;20039;-73
2023/11/30 11:47:22;;;;;;;88.82;32.88;;;2.90;99.90;;;;;;5045146;28;20654;-73
2023/11/30 11:49:48;;;;;;;92.43;33.88;;;2.90;99.90;;;;;;5065100;28;20025;-73
2023/11/30 11:52:21;;;;;;;85.07;32.70;;;2.90;99.90;;;;;;5066598;28;20048;-73
2023/11/30 11:54:46;;;;;;;83.57;30.38;;;3.00;99.90;;;;;;5069656;28;20394;-73
2023/11/30 11:57:12;;;;;;;95.68;34.08;;;3.00;99.90;;;;;;5071104;28;20027;-72
2023/11/30 11:59:38;;;;;;;84.32;30.25;;;3.00;99.90;;;;;;5055193;28;20508;-73
2023/11/30 12:02:03;;;;;;;107.05;33.35;;;3.00;99.90;;;;;;5064998;28;20047;-73
2023/11/30 12:04:36;;;;;;;115.32;35.55;;;3.00;99.90;;;;;;5070059;28;20557;-73
2023/11/30 12:07:14;;;;;;;93.38;34.17;;;3.10;99.90;;;;;;5066414;28;20032;-72
2023/11/30 12:09:40;;;;;;;108.68;35.10;;;3.10;99.90;;;;;;5063810;28;20048;-73
2023/11/30 12:12:07;;;;;;;117.57;35.60;;;3.20;99.90;;;;;;5060695;28;20059;-72
2023/11/30 12:14:32;;;;;;;113.57;36.72;;;3.20;99.90;;;;;;5050108;28;20071;-73
2023/11/30 12:16:58;;;;;;;112.32;37.10;;;3.20;99.90;;;;;;5064900;28;20505;-73
2023/11/30 12:19:23;;;;;;;112.00;37.00;;;3.30;99.90;;;;;;5065951;28;20038;-73
2023/11/30 12:21:49;;;;;;;119.45;38.13;;;3.30;99.90;;;;;;5048317;28;20012;-73
2023/11/30 12:24:15;;;;;;;114.72;35.50;;;3.30;99.90;;;;;;5065508;28;20767;-73
2023/11/30 12:26:41;;;;;;;104.55;34.42;;;3.30;99.90;;;;;;5065575;28;20107;-73
2023/11/30 12:29:10;;;;;;;119.50;38.95;;;3.40;99.90;;;;;;5047807;28;20012;-73
2023/11/30 12:31:35;;;;;;;121.03;36.85;;;3.40;99.90;;;;;;5064283;28;20494;-73
2023/11/30 12:34:01;;;;;;;118.38;38.22;;;3.40;99.90;;;;;;5067010;28;20028;-72